Data for 08/23/2014

Time Sea-Level Adjusted Pressure Absolute Pressure Temperature Relative Humidity Dew Point   
(mb) (inHg) (mb) (inHg) (C) (F) (%) (C) (F)
00:05 1019 30.09 849 25.07 10.6 51.2 93 9.6 49.2
00:10 1019 30.09 848 25.04 10.7 51.3 93 9.6 49.3
00:15 1019 30.09 848 25.04 10.7 51.3 92 9.5 49.2
00:20 1019 30.09 848 25.04 10.7 51.2 92 9.5 49.1
00:25 1019 30.09 848 25.04 10.7 51.2 92 9.4 49
00:30 1019 30.09 848 25.04 10.7 51.2 92 9.4 49
00:35 1019 30.09 848 25.04 10.7 51.2 92 9.5 49
00:40 1019 30.09 848 25.04 10.7 51.3 92 9.5 49.1
00:45 1019 30.09 848 25.04 10.7 51.2 92 9.5 49.1
00:50 1019 30.09 848 25.04 10.7 51.3 93 9.5 49.2
00:55 1019 30.09 848 25.04 10.7 51.2 92 9.5 49.1
01:00 1019 30.09 848 25.04 10.7 51.2 93 9.5 49.1
01:05 1019 30.09 848 25.04 10.6 51.1 93 9.5 49.1
01:10 1019 30.09 848 25.04 10.5 51 93 9.4 48.9
01:15 1019 30.09 848 25.04 10.5 50.9 93 9.4 48.9
01:20 1019 30.09 848 25.04 10.5 51 93 9.5 49
01:25 1019 30.09 848 25.04 10.6 51 93 9.5 49
01:30 1019 30.09 848 25.04 10.5 50.8 93 9.4 48.9
01:35 1019 30.09 848 25.04 10.4 50.7 93 9.3 48.7
01:40 1019 30.09 848 25.04 10.4 50.7 93 9.3 48.8
01:45 1019 30.09 848 25.04 10.4 50.7 93 9.3 48.8
01:50 1019 30.09 848 25.04 10.4 50.7 93 9.3 48.8
01:55 1019 30.09 848 25.04 10.4 50.6 93 9.3 48.7
02:00 1019 30.09 848 25.04 10.4 50.7 93 9.3 48.8
02:05 1019 30.09 848 25.04 10.4 50.7 93 9.3 48.8
02:10 1019 30.09 848 25.04 10.4 50.7 93 9.3 48.8
02:15 1019 30.09 848 25.04 10.4 50.6 93 9.3 48.8
02:20 1019 30.09 848 25.04 10.4 50.7 93 9.3 48.8
02:25 1019 30.09 848 25.04 10.4 50.6 93 9.3 48.8
02:30 1019 30.09 848 25.04 10.4 50.6 94 9.4 48.9
02:35 1018 30.06 848 25.04 10.4 50.7 93 9.4 48.8
02:40 1018 30.06 848 25.04 10.4 50.7 93 9.4 48.9
02:45 1018 30.06 848 25.04 10.4 50.7 93 9.4 48.9
02:50 1018 30.06 848 25.04 10.4 50.7 94 9.4 48.9
02:55 1018 30.06 848 25.04 10.3 50.5 94 9.3 48.7
03:00 1018 30.06 848 25.04 10.2 50.3 93 9.1 48.4
03:05 1018 30.06 848 25.04 10 50 94 9 48.3
03:10 1018 30.06 848 25.04 9.9 49.8 93 8.9 48
03:15 1018 30.06 848 25.04 9.8 49.6 93 8.7 47.7
03:20 1018 30.06 848 25.04 9.6 49.2 94 8.6 47.5
03:25 1018 30.06 848 25.04 9.5 49.1 94 8.5 47.3
03:30 1018 30.06 848 25.04 9.4 48.9 93 8.4 47.1
03:35 1018 30.06 848 25.04 9.3 48.8 94 8.3 47
03:40 1018 30.06 848 25.04 9.3 48.7 94 8.3 46.9
03:45 1018 30.06 848 25.04 9.2 48.5 94 8.2 46.7
03:50 1018 30.06 848 25.04 9.1 48.4 93 8.1 46.5
03:55 1018 30.06 848 25.04 9 48.3 94 8.1 46.5
04:00 1018 30.06 848 25.04 9 48.2 94 8 46.5
04:05 1018 30.06 848 25.04 9 48.1 94 8 46.4
04:10 1018 30.06 848 25.04 8.9 48 93 7.9 46.2
04:15 1018 30.06 848 25.04 8.8 47.8 94 7.8 46
04:20 1018 30.06 848 25.04 8.6 47.5 94 7.6 45.7
04:25 1018 30.06 848 25.04 8.6 47.4 94 7.6 45.7
04:30 1018 30.06 847 25.01 8.5 47.4 93 7.5 45.6
04:35 1018 30.06 847 25.01 8.5 47.3 93 7.5 45.5
04:40 1018 30.06 847 25.01 8.5 47.3 93 7.5 45.4
04:45 1018 30.06 848 25.04 8.5 47.3 93 7.5 45.4
04:50 1018 30.06 848 25.04 8.5 47.3 93 7.4 45.4
04:55 1018 30.06 848 25.04 8.4 47.1 93 7.4 45.2
05:00 1018 30.06 847 25.01 8.4 47 93 7.3 45.2
05:05 1018 30.06 848 25.04 8.3 47 93 7.3 45.2
05:10 1018 30.06 847 25.01 8.3 47 93 7.3 45.2
05:15 1018 30.06 848 25.04 8.3 46.9 94 7.3 45.1
05:20 1018 30.06 848 25.04 8.2 46.7 93 7.2 44.9
05:25 1018 30.06 848 25.04 8.2 46.7 93 7.2 44.9
05:30 1019 30.09 848 25.04 8.2 46.7 93 7.1 44.9
05:35 1019 30.09 848 25.04 8.1 46.6 93 7.1 44.8
05:40 1019 30.09 848 25.04 8.1 46.5 93 7 44.7
05:45 1019 30.09 848 25.04 8 46.4 93 7 44.6
05:50 1019 30.09 848 25.04 8 46.4 93 7 44.6
05:55 1019 30.09 848 25.04 8 46.3 93 6.9 44.5
06:00 1019 30.09 848 25.04 8 46.3 93 6.9 44.4
06:05 1019 30.09 848 25.04 7.9 46.3 93 6.9 44.4
06:10 1019 30.09 848 25.04 7.9 46.3 93 6.9 44.4
06:15 1019 30.09 848 25.04 7.9 46.2 93 6.9 44.4
06:20 1019 30.09 848 25.04 7.8 46.1 93 6.7 44.1
06:25 1019 30.09 848 25.04 7.8 46.1 93 6.8 44.2
06:30 1019 30.09 848 25.04 7.8 46 93 6.7 44.1
06:35 1019 30.09 848 25.04 7.7 45.9 93 6.7 44
06:40 1019 30.09 848 25.04 7.7 45.9 93 6.7 44
06:45 1019 30.09 848 25.04 7.7 45.9 93 6.7 44
06:50 1019 30.09 848 25.04 7.7 45.8 93 6.6 44
06:55 1019 30.09 848 25.04 7.6 45.7 93 6.6 43.8
07:00 1019 30.09 848 25.04 7.6 45.6 93 6.6 43.8
07:05 1019 30.09 848 25.04 7.6 45.6 93 6.6 43.8
07:10 1019 30.09 848 25.04 7.6 45.6 93 6.5 43.8
07:15 1019 30.09 848 25.04 7.6 45.7 93 6.6 43.8
07:20 1019 30.09 848 25.04 7.6 45.7 93 6.6 43.8
07:25 1019 30.09 848 25.04 7.6 45.6 93 6.6 43.8
07:30 1019 30.09 848 25.04 7.6 45.6 93 6.5 43.8
07:35 1019 30.09 848 25.04 7.6 45.6 93 6.5 43.7
07:40 1019 30.09 848 25.04 7.6 45.6 93 6.6 43.8
07:45 1019 30.09 848 25.04 7.6 45.6 93 6.6 43.8
07:50 1019 30.09 848 25.04 7.6 45.6 93 6.6 43.8
07:55 1019 30.09 848 25.04 7.6 45.6 93 6.6 43.8
08:00 1019 30.09 848 25.04 7.5 45.6 94 6.6 43.8
08:05 1019 30.09 848 25.04 7.5 45.5 93 6.5 43.7
08:10 1019 30.09 848 25.04 7.4 45.4 93 6.4 43.5
08:15 1019 30.09 848 25.04 7.4 45.3 93 6.4 43.5
08:20 1019 30.09 848 25.04 7.4 45.3 94 6.4 43.6
08:25 1019 30.09 848 25.04 7.5 45.4 94 6.5 43.7
08:30 1019 30.09 848 25.04 7.5 45.5 94 6.6 43.8
08:35 1019 30.09 849 25.07 7.5 45.6 93 6.6 43.8
08:40 1019 30.09 849 25.07 7.5 45.5 94 6.5 43.7
08:45 1019 30.09 849 25.07 7.5 45.5 94 6.5 43.7
08:50 1019 30.09 849 25.07 7.5 45.4 93 6.4 43.6
08:55 1020 30.12 849 25.07 7.5 45.5 93 6.5 43.7
09:00 1020 30.12 849 25.07 7.6 45.7 93 6.6 43.9
09:05 1020 30.12 849 25.07 7.6 45.7 93 6.6 43.8
09:10 1020 30.12 849 25.07 7.6 45.8 93 6.6 43.8
09:15 1020 30.12 849 25.07 7.7 45.8 93 6.6 43.8
09:20 1020 30.12 849 25.07 7.6 45.7 92 6.4 43.6
09:25 1020 30.12 849 25.07 7.6 45.7 92 6.4 43.6
09:30 1020 30.12 849 25.07 7.7 45.8 93 6.6 43.8
09:35 1020 30.12 849 25.07 7.8 46 93 6.6 43.9
09:40 1020 30.12 849 25.07 7.8 46.1 92 6.7 44
09:45 1020 30.12 849 25.07 7.8 46.1 92 6.7 44
09:50 1020 30.12 849 25.07 7.8 46 92 6.6 43.8
09:55 1020 30.12 849 25.07 7.8 46.1 92 6.6 43.9
10:00 1020 30.12 849 25.07 7.9 46.2 92 6.6 44
10:05 1020 30.12 849 25.07 7.9 46.1 92 6.6 43.9
10:10 1020 30.12 849 25.07 7.9 46.3 92 6.7 44.1
10:15 1020 30.12 849 25.07 8 46.4 91 6.7 44
10:20 1020 30.12 849 25.07 8 46.3 91 6.5 43.7
10:25 1020 30.12 849 25.07 7.9 46.2 91 6.6 43.8
10:30 1020 30.12 849 25.07 8 46.4 91 6.6 43.9
10:35 1020 30.12 849 25.07 7.9 46.3 91 6.5 43.7
10:40 1020 30.12 849 25.07 8 46.3 91 6.6 43.8
10:45 1020 30.12 849 25.07 8 46.4 91 6.6 43.9
10:50 1020 30.12 849 25.07 8.1 46.5 91 6.6 43.9
10:55 1020 30.12 849 25.07 8.1 46.6 91 6.7 44
11:00 1020 30.12 849 25.07 8.1 46.6 91 6.7 44.1
11:05 1020 30.12 849 25.07 8.2 46.7 90 6.7 44
11:10 1020 30.12 849 25.07 8.1 46.6 90 6.6 43.8
11:15 1020 30.12 849 25.07 8.2 46.7 91 6.7 44.1
11:20 1020 30.12 850 25.1 8.2 46.7 90 6.7 44
11:25 1020 30.12 850 25.1 8.1 46.6 90 6.6 43.9
11:30 1020 30.12 850 25.1 8.1 46.5 90 6.5 43.7
11:35 1020 30.12 850 25.1 8.1 46.6 91 6.7 44
11:40 1021 30.15 850 25.1 8.2 46.7 90 6.7 44.1
11:45 1021 30.15 850 25.1 8.2 46.7 90 6.7 44
11:50 1021 30.15 850 25.1 8.2 46.7 91 6.7 44.1
11:55 1021 30.15 850 25.1 8.2 46.7 90 6.6 43.9
12:00 1021 30.15 850 25.1 8.1 46.6 90 6.6 43.9
12:05 1021 30.15 850 25.1 8.2 46.8 90 6.6 44
12:10 1021 30.15 850 25.1 8.2 46.7 90 6.7 44
12:15 1021 30.15 850 25.1 8.3 46.9 90 6.8 44.3
12:20 1020 30.12 850 25.1 8.3 47 90 6.7 44.1
12:25 1020 30.12 850 25.1 8.3 46.9 89 6.5 43.8
12:30 1020 30.12 850 25.1 8.3 46.9 89 6.6 43.9
12:35 1020 30.12 850 25.1 8.3 47 90 6.7 44.1
12:40 1020 30.12 850 25.1 8.4 47 90 6.8 44.3
12:45 1020 30.12 850 25.1 8.4 47.2 89 6.8 44.3
12:50 1020 30.12 850 25.1 8.4 47.2 89 6.8 44.3
12:55 1020 30.12 850 25.1 8.4 47.1 90 6.8 44.2
13:00 1020 30.12 850 25.1 8.4 47.2 90 6.9 44.5
13:05 1020 30.12 850 25.1 8.5 47.3 90 7 44.7
13:10 1020 30.12 850 25.1 8.5 47.2 90 6.8 44.3
13:15 1021 30.15 850 25.1 8.5 47.2 90 6.9 44.4
13:20 1021 30.15 850 25.1 8.5 47.3 90 7 44.6
13:25 1021 30.15 850 25.1 8.5 47.4 90 7 44.6
13:30 1021 30.15 850 25.1 8.5 47.2 90 6.9 44.4
13:35 1021 30.15 850 25.1 8.5 47.3 90 7 44.5
13:40 1021 30.15 850 25.1 8.6 47.4 90 7.1 44.7
13:45 1020 30.12 850 25.1 8.6 47.5 90 7.1 44.7
13:50 1020 30.12 850 25.1 8.7 47.6 90 7.1 44.8
13:55 1020 30.12 850 25.1 8.8 47.8 89 7 44.7
14:00 1021 30.15 850 25.1 8.8 47.9 89 7.2 44.9
14:05 1021 30.15 850 25.1 8.8 47.9 89 7.1 44.8
14:10 1021 30.15 850 25.1 8.9 47.9 89 7.1 44.8
14:15 1021 30.15 850 25.1 8.8 47.9 90 7.2 45
14:20 1021 30.15 850 25.1 8.9 48 90 7.3 45.2
14:25 1021 30.15 850 25.1 8.9 48.1 90 7.3 45.2
14:30 1021 30.15 850 25.1 9 48.3 89 7.3 45.2
14:35 1021 30.15 850 25.1 9.1 48.4 88 7.3 45.1
14:40 1020 30.12 850 25.1 9.1 48.4 90 7.5 45.5
14:45 1021 30.15 850 25.1 9.1 48.3 88 7.1 44.9
14:50 1021 30.15 850 25.1 9.1 48.3 89 7.4 45.4
14:55 1021 30.15 850 25.1 9.2 48.5 89 7.5 45.5
15:00 1021 30.15 850 25.1 9.2 48.5 88 7.4 45.3
15:05 1021 30.15 850 25.1 9.2 48.5 88 7.3 45.2
15:10 1021 30.15 850 25.1 9.1 48.5 89 7.5 45.5
15:15 1021 30.15 850 25.1 9.2 48.6 90 7.6 45.8
15:20 1021 30.15 850 25.1 9.3 48.7 88 7.4 45.3
15:25 1020 30.12 850 25.1 9.1 48.4 89 7.3 45.2
15:30 1021 30.15 850 25.1 9.2 48.5 89 7.5 45.5
15:35 1021 30.15 850 25.1 9.1 48.4 88 7.3 45.2
15:40 1021 30.15 850 25.1 9.2 48.5 89 7.4 45.4
15:45 1021 30.15 850 25.1 9.1 48.3 89 7.3 45.1
15:50 1021 30.15 850 25.1 8.9 48.1 89 7.2 44.9
15:55 1021 30.15 850 25.1 8.9 48 89 7.2 44.9
16:00 1021 30.15 850 25.1 8.9 48 89 7.3 45.1
16:05 1021 30.15 850 25.1 8.9 48.1 88 7.1 44.8
16:10 1021 30.15 850 25.1 8.8 47.9 88 6.9 44.4
16:15 1021 30.15 850 25.1 8.8 47.8 89 7 44.6
16:20 1021 30.15 850 25.1 8.8 47.9 89 7.1 44.8
16:25 1021 30.15 850 25.1 8.9 47.9 89 7.2 44.9
16:30 1021 30.15 850 25.1 9 48.1 90 7.4 45.3
16:35 1021 30.15 850 25.1 9 48.2 88 7.1 44.8
16:40 1021 30.15 850 25.1 9 48.2 88 7.1 44.8
16:45 1021 30.15 850 25.1 9 48.2 88 7.1 44.8
16:50 1021 30.15 850 25.1 9 48.2 89 7.2 45
16:55 1021 30.15 850 25.1 9.1 48.3 88 7.2 45
17:00 1021 30.15 850 25.1 9 48.3 88 7.2 44.9
17:05 1021 30.15 850 25.1 9 48.2 89 7.3 45.1
17:10 1021 30.15 850 25.1 9 48.1 89 7.3 45.2
17:15 1021 30.15 850 25.1 8.8 47.9 90 7.3 45.1
17:20 1021 30.15 850 25.1 8.8 47.9 90 7.3 45.1
17:25 1021 30.15 850 25.1 8.8 47.8 90 7.2 44.9
17:30 1021 30.15 850 25.1 8.7 47.7 90 7.2 44.9
17:35 1021 30.15 850 25.1 8.8 47.8 90 7.2 44.9
17:40 1021 30.15 850 25.1 8.6 47.5 90 7.1 44.8
17:45 1021 30.15 850 25.1 8.5 47.2 90 6.9 44.4
17:50 1021 30.15 850 25.1 8.4 47 89 6.7 44.1
17:55 1021 30.15 850 25.1 8.3 46.9 89 6.6 43.9
18:00 1021 30.15 850 25.1 8.2 46.7 88 6.4 43.5
18:05 1021 30.15 850 25.1 8.2 46.8 90 6.6 43.9
18:10 1021 30.15 850 25.1 8.2 46.8 90 6.7 44
18:15 1021 30.15 850 25.1 8.2 46.7 90 6.7 44.1
18:20 1021 30.15 850 25.1 8.2 46.7 91 6.8 44.2
18:25 1021 30.15 850 25.1 8.2 46.7 91 6.8 44.2
18:30 1021 30.15 850 25.1 8.1 46.6 91 6.7 44.1
18:35 1021 30.15 850 25.1 8.1 46.5 91 6.6 43.9
18:40 1021 30.15 851 25.13 8 46.5 91 6.7 44.1
18:45 1021 30.15 851 25.13 8.1 46.5 92 6.8 44.2
18:50 1021 30.15 851 25.13 8.1 46.5 91 6.7 44.1
18:55 1021 30.15 851 25.13 8 46.4 91 6.6 43.9
19:00 1021 30.15 851 25.13 7.9 46.3 91 6.5 43.7
19:05 1021 30.15 851 25.13 7.9 46.3 91 6.6 43.9
19:10 1021 30.15 851 25.13 7.9 46.2 91 6.5 43.6
19:15 1021 30.15 851 25.13 7.8 46 91 6.4 43.5
19:20 1022 30.18 851 25.13 7.7 45.9 91 6.3 43.3
19:25 1022 30.18 851 25.13 7.6 45.7 90 6.1 43
19:30 1022 30.18 851 25.13 7.6 45.6 91 6.1 43
19:35 1022 30.18 851 25.13 7.5 45.5 91 6.1 43.1
19:40 1022 30.18 851 25.13 7.5 45.5 91 6.1 43
19:45 1022 30.18 851 25.13 7.5 45.5 91 6.1 43
19:50 1022 30.18 851 25.13 7.5 45.5 92 6.2 43.2
19:55 1022 30.18 851 25.13 7.5 45.6 92 6.3 43.4
20:00 1022 30.18 851 25.13 7.5 45.5 92 6.3 43.4
20:05 1022 30.18 851 25.13 7.4 45.3 92 6.2 43.2
20:10 1022 30.18 851 25.13 7.4 45.2 92 6.1 43
20:15 1022 30.18 851 25.13 7.3 45.1 92 6 42.8
20:20 1022 30.18 851 25.13 7.2 45 92 5.9 42.7
20:25 1022 30.18 851 25.13 7.1 44.8 92 5.8 42.5
20:30 1022 30.18 851 25.13 7 44.6 92 5.8 42.4
20:35 1022 30.18 851 25.13 7 44.6 91 5.7 42.2
20:40 1022 30.18 851 25.13 7 44.6 92 5.8 42.4
20:45 1022 30.18 851 25.13 7 44.6 92 5.8 42.4
20:50 1022 30.18 851 25.13 6.9 44.5 92 5.7 42.3
20:55 1022 30.18 851 25.13 6.8 44.3 92 5.6 42.1
21:00 1022 30.18 851 25.13 6.8 44.2 92 5.6 42.1
21:05 1022 30.18 851 25.13 6.7 44.1 92 5.5 42
21:10 1022 30.18 851 25.13 6.7 44 92 5.5 41.9
21:15 1022 30.18 851 25.13 6.6 43.9 92 5.4 41.7
21:20 1022 30.18 851 25.13 6.5 43.8 92 5.3 41.6
21:25 1022 30.18 851 25.13 6.5 43.7 92 5.3 41.6
21:30 1022 30.18 851 25.13 6.5 43.8 92 5.3 41.6
21:35 1022 30.18 851 25.13 6.5 43.7 92 5.3 41.5
21:40 1022 30.18 851 25.13 6.5 43.6 92 5.2 41.4
21:45 1022 30.18 851 25.13 6.4 43.5 92 5.1 41.2
21:50 1022 30.18 851 25.13 6.4 43.4 92 5.1 41.1
21:55 1022 30.18 851 25.13 6.3 43.3 92 5 41
22:00 1022 30.18 851 25.13 6.3 43.3 92 5 41
22:05 1022 30.18 851 25.13 6.3 43.3 92 5.1 41.1
22:10 1022 30.18 851 25.13 6.3 43.4 92 5.1 41.1
22:15 1022 30.18 851 25.13 6.3 43.3 91 5 41
22:20 1022 30.18 851 25.13 6.3 43.3 92 5 41
22:25 1022 30.18 851 25.13 6.3 43.3 92 5 41.1
22:30 1022 30.18 851 25.13 6.3 43.3 92 5 41
22:35 1022 30.18 851 25.13 6.3 43.3 92 5 41
22:40 1022 30.18 851 25.13 6.3 43.3 92 5.1 41.1
22:45 1022 30.18 851 25.13 6.3 43.3 92 5.1 41.1
22:50 1022 30.18 851 25.13 6.3 43.4 92 5.1 41.1
22:55 1022 30.18 851 25.13 6.3 43.4 92 5.1 41.1
23:00 1022 30.18 851 25.13 6.3 43.4 91 5 41.1
23:05 1022 30.18 851 25.13 6.4 43.4 91 5.1 41.1
23:10 1022 30.18 851 25.13 6.4 43.4 91 5 41.1
23:15 1022 30.18 851 25.13 6.4 43.5 91 5.1 41.1
23:20 1022 30.18 851 25.13 6.4 43.5 92 5.1 41.2
23:25 1022 30.18 851 25.13 6.4 43.5 92 5.2 41.3
23:30 1022 30.18 851 25.13 6.5 43.6 91 5.2 41.3
23:35 1022 30.18 851 25.13 6.4 43.6 91 5.1 41.2
23:40 1022 30.18 851 25.13 6.4 43.5 92 5.1 41.2
23:45 1022 30.18 851 25.13 6.4 43.5 92 5.2 41.3
23:50 1022 30.18 851 25.13 6.4 43.5 92 5.2 41.3
23:55 1022 30.18 851 25.13 6.3 43.4 92 5.1 41.3
24:00 1022 30.18 851 25.13 6.4 43.4 92 5.2 41.3